Terminal Aerodrome Forecast
Issued by NWS

Home | Current Version | Previous Version | Text Only | Print | Product List | Glossary Off
Versions: 1 2 3 4 5 6 7 8 9 10 11 12 13 14 15 16 17

000
FTUS43 KBIS 142300
TAFMOT
TAF
KMOT 142335Z 1500/1524 VRB06KT P6SM FEW050
     FM150700 14011KT P6SM BKN070
     FM151500 12014G22KT P6SM OVC050
     FM151900 11013G19KT P6SM VCSH OVC025=

USA.gov is the U.S. government's official web portal to all federal, state and local government web resources and services.